sensor_id;sensor_type;location;lat;lon;timestamp;P1;durP1;ratioP1;P2;durP2;ratioP2
14396;SDS011;50653;47.810;13.022;2023-02-17T00:00:28;6.55;;;5.95;;
14396;SDS011;50653;47.810;13.022;2023-02-17T00:02:57;6.57;;;5.90;;
14396;SDS011;50653;47.810;13.022;2023-02-17T00:05:23;5.70;;;5.28;;
14396;SDS011;50653;47.810;13.022;2023-02-17T00:07:50;6.30;;;5.72;;
14396;SDS011;50653;47.810;13.022;2023-02-17T00:10:15;6.30;;;5.75;;
14396;SDS011;50653;47.810;13.022;2023-02-17T00:12:41;5.53;;;5.03;;
14396;SDS011;50653;47.810;13.022;2023-02-17T00:15:07;6.57;;;5.50;;
14396;SDS011;50653;47.810;13.022;2023-02-17T00:17:33;5.85;;;5.40;;
14396;SDS011;50653;47.810;13.022;2023-02-17T00:19:59;6.10;;;5.60;;
14396;SDS011;50653;47.810;13.022;2023-02-17T00:22:24;5.80;;;5.40;;
14396;SDS011;50653;47.810;13.022;2023-02-17T00:24:50;5.22;;;4.72;;
14396;SDS011;50653;47.810;13.022;2023-02-17T00:27:16;5.63;;;5.10;;
14396;SDS011;50653;47.810;13.022;2023-02-17T00:29:41;5.10;;;4.60;;
14396;SDS011;50653;47.810;13.022;2023-02-17T00:32:07;7.07;;;4.50;;
14396;SDS011;50653;47.810;13.022;2023-02-17T00:34:34;5.80;;;5.25;;
14396;SDS011;50653;47.810;13.022;2023-02-17T00:37:00;5.22;;;4.72;;
14396;SDS011;50653;47.810;13.022;2023-02-17T00:39:26;5.10;;;4.60;;
14396;SDS011;50653;47.810;13.022;2023-02-17T00:41:52;5.63;;;4.70;;
14396;SDS011;50653;47.810;13.022;2023-02-17T00:44:20;6.60;;;4.88;;
14396;SDS011;50653;47.810;13.022;2023-02-17T00:46:50;6.97;;;5.35;;
14396;SDS011;50653;47.810;13.022;2023-02-17T00:49:19;4.38;;;4.07;;
14396;SDS011;50653;47.810;13.022;2023-02-17T00:51:47;7.28;;;4.93;;
14396;SDS011;50653;47.810;13.022;2023-02-17T00:54:13;6.07;;;5.00;;
14396;SDS011;50653;47.810;13.022;2023-02-17T00:56:40;5.57;;;5.10;;
14396;SDS011;50653;47.810;13.022;2023-02-17T00:59:06;4.50;;;4.20;;
14396;SDS011;50653;47.810;13.022;2023-02-17T01:01:32;5.50;;;5.00;;
14396;SDS011;50653;47.810;13.022;2023-02-17T01:03:58;5.30;;;4.80;;
14396;SDS011;50653;47.810;13.022;2023-02-17T01:06:28;5.00;;;4.60;;
14396;SDS011;50653;47.810;13.022;2023-02-17T01:08:55;5.25;;;4.75;;
14396;SDS011;50653;47.810;13.022;2023-02-17T01:11:22;5.40;;;4.90;;
14396;SDS011;50653;47.810;13.022;2023-02-17T01:13:49;5.38;;;4.82;;
14396;SDS011;50653;47.810;13.022;2023-02-17T01:16:17;5.20;;;4.80;;
14396;SDS011;50653;47.810;13.022;2023-02-17T01:18:44;5.45;;;4.95;;
14396;SDS011;50653;47.810;13.022;2023-02-17T01:21:21;5.63;;;4.73;;
14396;SDS011;50653;47.810;13.022;2023-02-17T01:23:48;4.90;;;4.50;;
14396;SDS011;50653;47.810;13.022;2023-02-17T01:26:19;4.30;;;4.00;;
14396;SDS011;50653;47.810;13.022;2023-02-17T01:28:47;5.13;;;4.60;;
14396;SDS011;50653;47.810;13.022;2023-02-17T01:31:14;4.15;;;3.70;;
14396;SDS011;50653;47.810;13.022;2023-02-17T01:33:40;4.65;;;4.25;;
14396;SDS011;50653;47.810;13.022;2023-02-17T01:36:08;4.30;;;3.90;;
14396;SDS011;50653;47.810;13.022;2023-02-17T01:38:37;5.28;;;4.40;;
14396;SDS011;50653;47.810;13.022;2023-02-17T01:41:04;4.63;;;4.25;;
14396;SDS011;50653;47.810;13.022;2023-02-17T01:43:32;4.20;;;3.90;;
14396;SDS011;50653;47.810;13.022;2023-02-17T01:45:59;4.35;;;4.05;;
14396;SDS011;50653;47.810;13.022;2023-02-17T01:48:32;5.22;;;4.13;;
14396;SDS011;50653;47.810;13.022;2023-02-17T01:51:00;4.43;;;4.13;;
14396;SDS011;50653;47.810;13.022;2023-02-17T01:53:49;4.63;;;4.00;;
14396;SDS011;50653;47.810;13.022;2023-02-17T01:56:20;4.78;;;4.00;;
14396;SDS011;50653;47.810;13.022;2023-02-17T01:58:49;4.97;;;4.47;;
14396;SDS011;50653;47.810;13.022;2023-02-17T02:01:32;4.50;;;4.18;;
14396;SDS011;50653;47.810;13.022;2023-02-17T02:03:59;4.50;;;4.13;;
14396;SDS011;50653;47.810;13.022;2023-02-17T02:06:27;4.18;;;3.88;;
14396;SDS011;50653;47.810;13.022;2023-02-17T02:09:02;4.10;;;3.70;;
14396;SDS011;50653;47.810;13.022;2023-02-17T02:11:30;4.30;;;4.00;;
14396;SDS011;50653;47.810;13.022;2023-02-17T02:13:57;4.85;;;4.35;;
14396;SDS011;50653;47.810;13.022;2023-02-17T02:16:41;4.35;;;3.95;;
14396;SDS011;50653;47.810;13.022;2023-02-17T02:19:25;4.10;;;3.80;;
14396;SDS011;50653;47.810;13.022;2023-02-17T02:25:21;6.40;;;4.55;;
14396;SDS011;50653;47.810;13.022;2023-02-17T02:28:06;4.20;;;3.90;;
14396;SDS011;50653;47.810;13.022;2023-02-17T02:30:44;4.93;;;3.88;;
14396;SDS011;50653;47.810;13.022;2023-02-17T02:33:31;4.57;;;4.07;;
14396;SDS011;50653;47.810;13.022;2023-02-17T02:36:10;4.20;;;3.90;;
14396;SDS011;50653;47.810;13.022;2023-02-17T02:38:46;4.15;;;3.92;;
14396;SDS011;50653;47.810;13.022;2023-02-17T02:41:36;4.10;;;3.80;;
14396;SDS011;50653;47.810;13.022;2023-02-17T02:44:07;5.00;;;4.05;;
14396;SDS011;50653;47.810;13.022;2023-02-17T02:46:35;4.72;;;4.43;;
14396;SDS011;50653;47.810;13.022;2023-02-17T02:49:01;4.00;;;3.80;;
14396;SDS011;50653;47.810;13.022;2023-02-17T02:57:23;3.90;;;3.60;;
14396;SDS011;50653;47.810;13.022;2023-02-17T03:08:14;3.97;;;3.67;;
14396;SDS011;50653;47.810;13.022;2023-02-17T03:10:48;4.00;;;3.70;;
14396;SDS011;50653;47.810;13.022;2023-02-17T03:13:15;4.00;;;3.70;;
14396;SDS011;50653;47.810;13.022;2023-02-17T03:15:42;4.40;;;3.80;;
14396;SDS011;50653;47.810;13.022;2023-02-17T03:18:09;5.00;;;4.03;;
14396;SDS011;50653;47.810;13.022;2023-02-17T03:20:37;6.88;;;4.22;;
14396;SDS011;50653;47.810;13.022;2023-02-17T03:23:18;4.20;;;3.90;;
14396;SDS011;50653;47.810;13.022;2023-02-17T03:25:44;4.50;;;4.07;;
14396;SDS011;50653;47.810;13.022;2023-02-17T03:28:12;4.40;;;4.00;;
14396;SDS011;50653;47.810;13.022;2023-02-17T03:30:39;4.30;;;3.90;;
14396;SDS011;50653;47.810;13.022;2023-02-17T03:33:05;4.03;;;3.63;;
14396;SDS011;50653;47.810;13.022;2023-02-17T03:35:31;3.80;;;3.50;;
14396;SDS011;50653;47.810;13.022;2023-02-17T03:37:56;3.73;;;3.43;;
14396;SDS011;50653;47.810;13.022;2023-02-17T03:40:22;4.87;;;3.60;;
14396;SDS011;50653;47.810;13.022;2023-02-17T03:42:48;4.13;;;3.50;;
14396;SDS011;50653;47.810;13.022;2023-02-17T03:45:13;4.70;;;4.10;;
14396;SDS011;50653;47.810;13.022;2023-02-17T03:47:39;5.10;;;4.20;;
14396;SDS011;50653;47.810;13.022;2023-02-17T03:50:05;4.20;;;3.90;;
14396;SDS011;50653;47.810;13.022;2023-02-17T03:52:31;3.97;;;3.60;;
14396;SDS011;50653;47.810;13.022;2023-02-17T03:54:57;3.55;;;3.13;;
14396;SDS011;50653;47.810;13.022;2023-02-17T03:57:22;3.93;;;3.63;;
14396;SDS011;50653;47.810;13.022;2023-02-17T03:59:48;5.20;;;3.10;;
14396;SDS011;50653;47.810;13.022;2023-02-17T04:02:13;3.67;;;3.38;;
14396;SDS011;50653;47.810;13.022;2023-02-17T04:04:39;3.50;;;3.20;;
14396;SDS011;50653;47.810;13.022;2023-02-17T04:07:05;5.07;;;3.75;;
14396;SDS011;50653;47.810;13.022;2023-02-17T04:09:30;3.73;;;3.33;;
14396;SDS011;50653;47.810;13.022;2023-02-17T04:11:56;4.10;;;3.53;;
14396;SDS011;50653;47.810;13.022;2023-02-17T04:14:21;4.50;;;3.28;;
14396;SDS011;50653;47.810;13.022;2023-02-17T04:16:47;3.97;;;3.67;;
14396;SDS011;50653;47.810;13.022;2023-02-17T04:19:13;6.07;;;4.33;;
14396;SDS011;50653;47.810;13.022;2023-02-17T04:21:38;3.90;;;3.50;;
14396;SDS011;50653;47.810;13.022;2023-02-17T04:24:04;4.10;;;3.70;;
14396;SDS011;50653;47.810;13.022;2023-02-17T04:26:30;3.63;;;3.33;;
14396;SDS011;50653;47.810;13.022;2023-02-17T04:28:55;3.72;;;3.42;;
14396;SDS011;50653;47.810;13.022;2023-02-17T04:31:21;3.78;;;3.47;;
14396;SDS011;50653;47.810;13.022;2023-02-17T04:33:47;4.65;;;4.25;;
14396;SDS011;50653;47.810;13.022;2023-02-17T04:36:13;4.93;;;3.75;;
14396;SDS011;50653;47.810;13.022;2023-02-17T04:38:39;4.65;;;3.30;;
14396;SDS011;50653;47.810;13.022;2023-02-17T04:41:05;7.53;;;3.85;;
14396;SDS011;50653;47.810;13.022;2023-02-17T04:43:31;4.60;;;4.20;;
14396;SDS011;50653;47.810;13.022;2023-02-17T04:45:57;6.27;;;3.60;;
14396;SDS011;50653;47.810;13.022;2023-02-17T04:48:24;3.30;;;3.00;;
14396;SDS011;50653;47.810;13.022;2023-02-17T04:50:50;4.70;;;3.67;;
14396;SDS011;50653;47.810;13.022;2023-02-17T04:53:16;4.35;;;3.90;;
14396;SDS011;50653;47.810;13.022;2023-02-17T04:55:43;5.70;;;3.60;;
14396;SDS011;50653;47.810;13.022;2023-02-17T04:58:11;6.40;;;3.63;;
14396;SDS011;50653;47.810;13.022;2023-02-17T05:00:37;5.03;;;3.77;;
14396;SDS011;50653;47.810;13.022;2023-02-17T05:03:02;3.50;;;3.30;;
14396;SDS011;50653;47.810;13.022;2023-02-17T05:05:28;4.22;;;3.80;;
14396;SDS011;50653;47.810;13.022;2023-02-17T05:07:54;3.80;;;3.35;;
14396;SDS011;50653;47.810;13.022;2023-02-17T05:10:19;4.30;;;3.70;;
14396;SDS011;50653;47.810;13.022;2023-02-17T05:12:45;4.23;;;3.83;;
14396;SDS011;50653;47.810;13.022;2023-02-17T05:15:11;3.77;;;3.47;;
14396;SDS011;50653;47.810;13.022;2023-02-17T05:17:37;3.10;;;2.90;;
14396;SDS011;50653;47.810;13.022;2023-02-17T05:20:03;3.83;;;3.53;;
14396;SDS011;50653;47.810;13.022;2023-02-17T05:22:30;6.30;;;3.88;;
14396;SDS011;50653;47.810;13.022;2023-02-17T05:24:55;4.60;;;3.67;;
14396;SDS011;50653;47.810;13.022;2023-02-17T05:27:21;4.60;;;3.80;;
14396;SDS011;50653;47.810;13.022;2023-02-17T05:29:47;4.30;;;3.80;;
14396;SDS011;50653;47.810;13.022;2023-02-17T05:32:12;4.50;;;3.60;;
14396;SDS011;50653;47.810;13.022;2023-02-17T05:34:38;3.58;;;3.28;;
14396;SDS011;50653;47.810;13.022;2023-02-17T05:37:04;4.05;;;3.85;;
14396;SDS011;50653;47.810;13.022;2023-02-17T05:39:29;6.40;;;3.60;;
14396;SDS011;50653;47.810;13.022;2023-02-17T05:41:55;6.90;;;3.43;;
14396;SDS011;50653;47.810;13.022;2023-02-17T05:44:21;4.43;;;4.03;;
14396;SDS011;50653;47.810;13.022;2023-02-17T05:46:46;3.80;;;3.40;;
14396;SDS011;50653;47.810;13.022;2023-02-17T05:49:12;4.73;;;4.23;;
14396;SDS011;50653;47.810;13.022;2023-02-17T05:51:38;4.65;;;4.15;;
14396;SDS011;50653;47.810;13.022;2023-02-17T05:54:04;4.10;;;3.70;;
14396;SDS011;50653;47.810;13.022;2023-02-17T05:56:29;4.55;;;3.65;;
14396;SDS011;50653;47.810;13.022;2023-02-17T05:58:55;5.35;;;3.60;;
14396;SDS011;50653;47.810;13.022;2023-02-17T06:01:20;8.40;;;4.10;;
14396;SDS011;50653;47.810;13.022;2023-02-17T06:03:46;4.10;;;3.70;;
14396;SDS011;50653;47.810;13.022;2023-02-17T06:06:12;4.28;;;3.95;;
14396;SDS011;50653;47.810;13.022;2023-02-17T06:08:38;5.63;;;3.83;;
14396;SDS011;50653;47.810;13.022;2023-02-17T06:11:04;3.70;;;3.40;;
14396;SDS011;50653;47.810;13.022;2023-02-17T06:13:30;3.88;;;3.58;;
14396;SDS011;50653;47.810;13.022;2023-02-17T06:15:56;3.85;;;3.50;;
14396;SDS011;50653;47.810;13.022;2023-02-17T06:18:22;5.20;;;3.67;;
14396;SDS011;50653;47.810;13.022;2023-02-17T06:20:48;4.83;;;3.23;;
14396;SDS011;50653;47.810;13.022;2023-02-17T06:23:14;4.10;;;3.07;;
14396;SDS011;50653;47.810;13.022;2023-02-17T06:25:39;8.07;;;2.90;;
14396;SDS011;50653;47.810;13.022;2023-02-17T06:28:05;4.20;;;2.90;;
14396;SDS011;50653;47.810;13.022;2023-02-17T06:30:31;3.50;;;3.20;;
14396;SDS011;50653;47.810;13.022;2023-02-17T06:32:57;4.20;;;3.55;;
14396;SDS011;50653;47.810;13.022;2023-02-17T06:35:23;4.07;;;2.97;;
14396;SDS011;50653;47.810;13.022;2023-02-17T06:37:49;5.00;;;2.90;;
14396;SDS011;50653;47.810;13.022;2023-02-17T06:40:14;3.80;;;3.38;;
14396;SDS011;50653;47.810;13.022;2023-02-17T06:42:40;3.63;;;3.33;;
14396;SDS011;50653;47.810;13.022;2023-02-17T06:45:06;3.88;;;3.58;;
14396;SDS011;50653;47.810;13.022;2023-02-17T06:47:32;3.75;;;3.28;;
14396;SDS011;50653;47.810;13.022;2023-02-17T06:49:59;4.55;;;3.50;;
14396;SDS011;50653;47.810;13.022;2023-02-17T06:52:24;8.52;;;3.70;;
14396;SDS011;50653;47.810;13.022;2023-02-17T06:54:50;3.45;;;2.95;;
14396;SDS011;50653;47.810;13.022;2023-02-17T06:57:16;3.53;;;3.33;;
14396;SDS011;50653;47.810;13.022;2023-02-17T06:59:42;4.50;;;3.22;;
14396;SDS011;50653;47.810;13.022;2023-02-17T07:02:11;4.35;;;3.45;;
14396;SDS011;50653;47.810;13.022;2023-02-17T07:04:40;3.80;;;3.50;;
14396;SDS011;50653;47.810;13.022;2023-02-17T07:07:07;5.45;;;3.25;;
14396;SDS011;50653;47.810;13.022;2023-02-17T07:09:34;3.70;;;2.88;;
14396;SDS011;50653;47.810;13.022;2023-02-17T07:12:00;3.05;;;2.80;;
14396;SDS011;50653;47.810;13.022;2023-02-17T07:14:26;3.03;;;2.80;;
14396;SDS011;50653;47.810;13.022;2023-02-17T07:16:51;3.47;;;2.90;;
14396;SDS011;50653;47.810;13.022;2023-02-17T07:19:17;3.40;;;2.88;;
14396;SDS011;50653;47.810;13.022;2023-02-17T07:21:43;3.53;;;3.15;;
14396;SDS011;50653;47.810;13.022;2023-02-17T07:24:09;4.90;;;3.25;;
14396;SDS011;50653;47.810;13.022;2023-02-17T07:26:35;3.20;;;2.90;;
14396;SDS011;50653;47.810;13.022;2023-02-17T07:29:02;5.47;;;3.10;;
14396;SDS011;50653;47.810;13.022;2023-02-17T07:31:29;3.72;;;2.80;;
14396;SDS011;50653;47.810;13.022;2023-02-17T07:33:55;4.45;;;3.10;;
14396;SDS011;50653;47.810;13.022;2023-02-17T07:36:20;9.43;;;3.00;;
14396;SDS011;50653;47.810;13.022;2023-02-17T07:38:46;4.27;;;3.03;;
14396;SDS011;50653;47.810;13.022;2023-02-17T07:41:13;3.80;;;2.80;;
14396;SDS011;50653;47.810;13.022;2023-02-17T07:43:40;5.93;;;3.10;;
14396;SDS011;50653;47.810;13.022;2023-02-17T07:46:07;3.72;;;3.20;;
14396;SDS011;50653;47.810;13.022;2023-02-17T07:48:34;3.20;;;3.00;;
14396;SDS011;50653;47.810;13.022;2023-02-17T07:51:03;5.73;;;3.90;;
14396;SDS011;50653;47.810;13.022;2023-02-17T07:53:30;5.25;;;3.53;;
14396;SDS011;50653;47.810;13.022;2023-02-17T07:55:56;4.90;;;3.10;;
14396;SDS011;50653;47.810;13.022;2023-02-17T07:58:21;4.23;;;3.90;;
14396;SDS011;50653;47.810;13.022;2023-02-17T08:00:47;5.97;;;4.25;;
14396;SDS011;50653;47.810;13.022;2023-02-17T08:03:13;4.50;;;4.10;;
14396;SDS011;50653;47.810;13.022;2023-02-17T08:05:39;5.23;;;4.43;;
14396;SDS011;50653;47.810;13.022;2023-02-17T08:08:08;4.90;;;3.40;;
14396;SDS011;50653;47.810;13.022;2023-02-17T08:10:52;6.50;;;3.67;;
14396;SDS011;50653;47.810;13.022;2023-02-17T08:13:36;5.03;;;3.70;;
14396;SDS011;50653;47.810;13.022;2023-02-17T08:16:02;4.10;;;3.63;;
14396;SDS011;50653;47.810;13.022;2023-02-17T08:18:27;6.27;;;3.40;;
14396;SDS011;50653;47.810;13.022;2023-02-17T08:20:53;3.40;;;3.10;;
14396;SDS011;50653;47.810;13.022;2023-02-17T08:23:19;3.50;;;3.20;;
14396;SDS011;50653;47.810;13.022;2023-02-17T08:25:45;4.20;;;3.07;;
14396;SDS011;50653;47.810;13.022;2023-02-17T08:28:11;3.47;;;3.23;;
14396;SDS011;50653;47.810;13.022;2023-02-17T08:30:37;4.30;;;3.77;;
14396;SDS011;50653;47.810;13.022;2023-02-17T08:33:03;6.20;;;4.10;;
14396;SDS011;50653;47.810;13.022;2023-02-17T08:35:29;4.57;;;4.10;;
14396;SDS011;50653;47.810;13.022;2023-02-17T08:37:55;6.28;;;3.70;;
14396;SDS011;50653;47.810;13.022;2023-02-17T08:40:21;6.25;;;4.35;;
14396;SDS011;50653;47.810;13.022;2023-02-17T08:42:47;6.45;;;5.15;;
14396;SDS011;50653;47.810;13.022;2023-02-17T08:45:14;6.85;;;5.00;;
14396;SDS011;50653;47.810;13.022;2023-02-17T08:47:40;9.70;;;5.65;;
14396;SDS011;50653;47.810;13.022;2023-02-17T08:50:07;7.70;;;6.20;;
14396;SDS011;50653;47.810;13.022;2023-02-17T08:52:34;9.10;;;5.60;;
14396;SDS011;50653;47.810;13.022;2023-02-17T08:55:00;6.82;;;5.13;;
14396;SDS011;50653;47.810;13.022;2023-02-17T08:57:26;8.25;;;4.82;;
14396;SDS011;50653;47.810;13.022;2023-02-17T08:59:52;8.43;;;4.72;;
14396;SDS011;50653;47.810;13.022;2023-02-17T09:02:18;8.75;;;4.95;;
14396;SDS011;50653;47.810;13.022;2023-02-17T09:04:44;6.00;;;4.43;;
14396;SDS011;50653;47.810;13.022;2023-02-17T09:07:11;5.57;;;5.00;;
14396;SDS011;50653;47.810;13.022;2023-02-17T09:09:38;6.30;;;5.07;;
14396;SDS011;50653;47.810;13.022;2023-02-17T09:12:05;9.17;;;5.47;;
14396;SDS011;50653;47.810;13.022;2023-02-17T09:14:31;5.68;;;4.30;;
14396;SDS011;50653;47.810;13.022;2023-02-17T09:16:57;5.13;;;4.40;;
14396;SDS011;50653;47.810;13.022;2023-02-17T09:19:23;9.43;;;5.70;;
14396;SDS011;50653;47.810;13.022;2023-02-17T09:21:49;9.70;;;5.20;;
14396;SDS011;50653;47.810;13.022;2023-02-17T09:24:15;4.07;;;3.78;;
14396;SDS011;50653;47.810;13.022;2023-02-17T09:26:42;5.03;;;4.30;;
14396;SDS011;50653;47.810;13.022;2023-02-17T09:29:07;3.90;;;3.60;;
14396;SDS011;50653;47.810;13.022;2023-02-17T09:31:34;6.07;;;4.15;;
14396;SDS011;50653;47.810;13.022;2023-02-17T09:34:00;4.40;;;4.00;;
14396;SDS011;50653;47.810;13.022;2023-02-17T09:36:27;4.78;;;3.78;;
14396;SDS011;50653;47.810;13.022;2023-02-17T09:38:58;5.78;;;3.63;;
14396;SDS011;50653;47.810;13.022;2023-02-17T09:44:09;3.92;;;3.60;;
14396;SDS011;50653;47.810;13.022;2023-02-17T09:46:44;4.85;;;4.20;;
14396;SDS011;50653;47.810;13.022;2023-02-17T09:49:20;4.50;;;4.10;;
14396;SDS011;50653;47.810;13.022;2023-02-17T09:54:36;4.47;;;4.07;;
14396;SDS011;50653;47.810;13.022;2023-02-17T09:57:05;6.07;;;5.40;;
14396;SDS011;50653;47.810;13.022;2023-02-17T10:02:44;5.13;;;4.63;;
14396;SDS011;50653;47.810;13.022;2023-02-17T10:05:24;5.95;;;4.20;;
14396;SDS011;50653;47.810;13.022;2023-02-17T10:08:00;6.20;;;3.63;;
14396;SDS011;50653;47.810;13.022;2023-02-17T10:10:34;4.60;;;4.00;;
14396;SDS011;50653;47.810;13.022;2023-02-17T10:13:06;4.95;;;3.53;;
14396;SDS011;50653;47.810;13.022;2023-02-17T10:15:43;4.03;;;3.72;;
14396;SDS011;50653;47.810;13.022;2023-02-17T10:18:16;11.30;;;4.15;;
14396;SDS011;50653;47.810;13.022;2023-02-17T10:23:46;5.38;;;4.88;;
14396;SDS011;50653;47.810;13.022;2023-02-17T10:29:30;6.68;;;4.10;;
14396;SDS011;50653;47.810;13.022;2023-02-17T10:32:07;5.68;;;4.90;;
14396;SDS011;50653;47.810;13.022;2023-02-17T10:34:50;10.77;;;5.72;;
14396;SDS011;50653;47.810;13.022;2023-02-17T10:37:42;5.50;;;4.25;;
14396;SDS011;50653;47.810;13.022;2023-02-17T10:40:26;5.13;;;4.68;;
14396;SDS011;50653;47.810;13.022;2023-02-17T10:42:57;6.10;;;5.60;;
14396;SDS011;50653;47.810;13.022;2023-02-17T10:45:27;5.00;;;4.57;;
14396;SDS011;50653;47.810;13.022;2023-02-17T10:48:01;7.10;;;5.97;;
14396;SDS011;50653;47.810;13.022;2023-02-17T10:50:36;5.80;;;5.18;;
14396;SDS011;50653;47.810;13.022;2023-02-17T10:56:13;4.93;;;4.53;;
14396;SDS011;50653;47.810;13.022;2023-02-17T11:01:54;5.00;;;4.50;;
14396;SDS011;50653;47.810;13.022;2023-02-17T11:04:24;6.88;;;4.80;;
14396;SDS011;50653;47.810;13.022;2023-02-17T11:06:51;5.55;;;5.05;;
14396;SDS011;50653;47.810;13.022;2023-02-17T11:09:23;5.30;;;4.82;;
14396;SDS011;50653;47.810;13.022;2023-02-17T11:12:00;4.57;;;4.28;;
14396;SDS011;50653;47.810;13.022;2023-02-17T11:14:29;5.10;;;4.50;;
14396;SDS011;50653;47.810;13.022;2023-02-17T11:17:00;4.40;;;4.07;;
14396;SDS011;50653;47.810;13.022;2023-02-17T11:19:55;5.53;;;4.40;;
14396;SDS011;50653;47.810;13.022;2023-02-17T11:22:26;8.80;;;4.18;;
14396;SDS011;50653;47.810;13.022;2023-02-17T11:25:00;6.85;;;4.57;;
14396;SDS011;50653;47.810;13.022;2023-02-17T11:27:29;4.65;;;4.13;;
14396;SDS011;50653;47.810;13.022;2023-02-17T11:30:08;6.15;;;4.30;;
14396;SDS011;50653;47.810;13.022;2023-02-17T11:32:39;4.97;;;4.05;;
14396;SDS011;50653;47.810;13.022;2023-02-17T11:35:16;6.78;;;4.95;;
14396;SDS011;50653;47.810;13.022;2023-02-17T11:38:03;9.88;;;8.88;;
14396;SDS011;50653;47.810;13.022;2023-02-17T11:40:34;8.95;;;7.25;;
14396;SDS011;50653;47.810;13.022;2023-02-17T11:43:01;9.20;;;8.30;;
14396;SDS011;50653;47.810;13.022;2023-02-17T11:45:31;4.32;;;3.92;;
14396;SDS011;50653;47.810;13.022;2023-02-17T11:53:52;4.80;;;3.63;;
14396;SDS011;50653;47.810;13.022;2023-02-17T11:56:22;3.90;;;3.60;;
14396;SDS011;50653;47.810;13.022;2023-02-17T11:59:03;5.40;;;4.90;;
14396;SDS011;50653;47.810;13.022;2023-02-17T12:04:27;5.05;;;4.53;;
14396;SDS011;50653;47.810;13.022;2023-02-17T12:12:32;4.60;;;4.10;;
14396;SDS011;50653;47.810;13.022;2023-02-17T12:17:54;4.70;;;4.30;;
14396;SDS011;50653;47.810;13.022;2023-02-17T12:20:44;4.70;;;3.85;;
14396;SDS011;50653;47.810;13.022;2023-02-17T12:23:43;3.63;;;3.33;;
14396;SDS011;50653;47.810;13.022;2023-02-17T12:26:35;4.65;;;3.42;;
14396;SDS011;50653;47.810;13.022;2023-02-17T12:29:20;7.00;;;4.10;;
14396;SDS011;50653;47.810;13.022;2023-02-17T12:34:52;5.10;;;4.65;;
14396;SDS011;50653;47.810;13.022;2023-02-17T12:37:20;4.73;;;3.80;;
14396;SDS011;50653;47.810;13.022;2023-02-17T12:39:50;7.40;;;3.58;;
14396;SDS011;50653;47.810;13.022;2023-02-17T12:42:22;5.80;;;3.30;;
14396;SDS011;50653;47.810;13.022;2023-02-17T12:44:56;3.20;;;2.40;;
14396;SDS011;50653;47.810;13.022;2023-02-17T12:47:30;2.50;;;2.40;;
14396;SDS011;50653;47.810;13.022;2023-02-17T12:52:58;7.93;;;5.22;;
14396;SDS011;50653;47.810;13.022;2023-02-17T12:55:46;4.18;;;3.78;;
14396;SDS011;50653;47.810;13.022;2023-02-17T12:58:29;3.60;;;3.40;;
14396;SDS011;50653;47.810;13.022;2023-02-17T13:01:14;4.22;;;3.90;;
14396;SDS011;50653;47.810;13.022;2023-02-17T13:03:43;5.85;;;5.35;;
14396;SDS011;50653;47.810;13.022;2023-02-17T13:08:55;4.10;;;3.60;;
14396;SDS011;50653;47.810;13.022;2023-02-17T13:11:41;4.57;;;3.45;;
14396;SDS011;50653;47.810;13.022;2023-02-17T13:14:26;4.00;;;3.50;;
14396;SDS011;50653;47.810;13.022;2023-02-17T13:16:54;3.10;;;2.80;;
14396;SDS011;50653;47.810;13.022;2023-02-17T13:19:27;3.75;;;2.65;;
14396;SDS011;50653;47.810;13.022;2023-02-17T13:21:58;4.70;;;3.53;;
14396;SDS011;50653;47.810;13.022;2023-02-17T13:24:33;5.60;;;3.10;;
14396;SDS011;50653;47.810;13.022;2023-02-17T13:27:10;2.72;;;2.53;;
14396;SDS011;50653;47.810;13.022;2023-02-17T13:29:44;4.43;;;2.50;;
14396;SDS011;50653;47.810;13.022;2023-02-17T13:32:10;2.50;;;2.30;;
14396;SDS011;50653;47.810;13.022;2023-02-17T13:34:40;4.47;;;2.20;;
14396;SDS011;50653;47.810;13.022;2023-02-17T13:42:45;3.40;;;2.30;;
14396;SDS011;50653;47.810;13.022;2023-02-17T13:48:20;2.40;;;1.90;;
14396;SDS011;50653;47.810;13.022;2023-02-17T13:50:50;2.20;;;1.90;;
14396;SDS011;50653;47.810;13.022;2023-02-17T13:53:35;2.50;;;1.90;;
14396;SDS011;50653;47.810;13.022;2023-02-17T13:56:06;4.20;;;2.50;;
14396;SDS011;50653;47.810;13.022;2023-02-17T13:58:37;6.45;;;3.65;;
14396;SDS011;50653;47.810;13.022;2023-02-17T14:01:05;3.35;;;3.05;;
14396;SDS011;50653;47.810;13.022;2023-02-17T14:03:42;3.55;;;2.95;;
14396;SDS011;50653;47.810;13.022;2023-02-17T14:06:12;2.70;;;2.50;;
14396;SDS011;50653;47.810;13.022;2023-02-17T14:08:52;3.70;;;2.40;;
14396;SDS011;50653;47.810;13.022;2023-02-17T14:11:19;4.80;;;2.45;;
14396;SDS011;50653;47.810;13.022;2023-02-17T14:13:48;2.93;;;2.30;;
14396;SDS011;50653;47.810;13.022;2023-02-17T14:16:25;3.33;;;2.20;;
14396;SDS011;50653;47.810;13.022;2023-02-17T14:19:01;3.40;;;2.10;;
14396;SDS011;50653;47.810;13.022;2023-02-17T14:21:39;6.60;;;2.70;;
14396;SDS011;50653;47.810;13.022;2023-02-17T14:24:26;2.33;;;2.00;;
14396;SDS011;50653;47.810;13.022;2023-02-17T14:26:57;4.67;;;1.90;;
14396;SDS011;50653;47.810;13.022;2023-02-17T14:29:25;4.03;;;2.40;;
14396;SDS011;50653;47.810;13.022;2023-02-17T14:32:05;3.67;;;3.37;;
14396;SDS011;50653;47.810;13.022;2023-02-17T14:34:49;3.63;;;2.47;;
14396;SDS011;50653;47.810;13.022;2023-02-17T14:37:16;2.43;;;2.23;;
14396;SDS011;50653;47.810;13.022;2023-02-17T14:39:46;5.87;;;2.10;;
14396;SDS011;50653;47.810;13.022;2023-02-17T14:42:12;2.83;;;2.60;;
14396;SDS011;50653;47.810;13.022;2023-02-17T14:44:37;3.43;;;2.00;;
14396;SDS011;50653;47.810;13.022;2023-02-17T14:47:03;2.87;;;2.50;;
14396;SDS011;50653;47.810;13.022;2023-02-17T14:49:29;2.23;;;2.03;;
14396;SDS011;50653;47.810;13.022;2023-02-17T14:51:55;1.40;;;1.10;;
14396;SDS011;50653;47.810;13.022;2023-02-17T14:54:20;1.00;;;1.00;;
14396;SDS011;50653;47.810;13.022;2023-02-17T14:56:59;2.07;;;1.10;;
14396;SDS011;50653;47.810;13.022;2023-02-17T14:59:29;2.03;;;1.30;;
14396;SDS011;50653;47.810;13.022;2023-02-17T15:01:54;2.60;;;1.30;;
14396;SDS011;50653;47.810;13.022;2023-02-17T15:04:20;1.03;;;0.93;;
14396;SDS011;50653;47.810;13.022;2023-02-17T15:06:47;1.30;;;0.80;;
14396;SDS011;50653;47.810;13.022;2023-02-17T15:09:15;9.23;;;0.97;;
14396;SDS011;50653;47.810;13.022;2023-02-17T15:11:45;5.50;;;1.27;;
14396;SDS011;50653;47.810;13.022;2023-02-17T15:14:16;1.37;;;0.80;;
14396;SDS011;50653;47.810;13.022;2023-02-17T15:16:44;3.30;;;2.80;;
14396;SDS011;50653;47.810;13.022;2023-02-17T15:19:12;3.43;;;2.77;;
14396;SDS011;50653;47.810;13.022;2023-02-17T15:21:39;5.50;;;2.83;;
14396;SDS011;50653;47.810;13.022;2023-02-17T15:24:14;6.23;;;2.83;;
14396;SDS011;50653;47.810;13.022;2023-02-17T15:26:41;1.90;;;1.17;;
14396;SDS011;50653;47.810;13.022;2023-02-17T15:29:14;2.70;;;0.80;;
14396;SDS011;50653;47.810;13.022;2023-02-17T15:31:41;1.00;;;0.90;;
14396;SDS011;50653;47.810;13.022;2023-02-17T15:34:14;1.97;;;0.77;;
14396;SDS011;50653;47.810;13.022;2023-02-17T15:36:41;7.97;;;0.90;;
14396;SDS011;50653;47.810;13.022;2023-02-17T15:39:11;0.90;;;0.80;;
14396;SDS011;50653;47.810;13.022;2023-02-17T15:41:38;0.93;;;0.60;;
14396;SDS011;50653;47.810;13.022;2023-02-17T15:44:05;0.80;;;0.50;;
14396;SDS011;50653;47.810;13.022;2023-02-17T15:46:36;5.73;;;3.80;;
14396;SDS011;50653;47.810;13.022;2023-02-17T15:49:03;1.17;;;0.57;;
14396;SDS011;50653;47.810;13.022;2023-02-17T15:51:29;2.40;;;0.63;;
14396;SDS011;50653;47.810;13.022;2023-02-17T15:53:55;1.50;;;0.83;;
14396;SDS011;50653;47.810;13.022;2023-02-17T15:56:25;4.10;;;1.10;;
14396;SDS011;50653;47.810;13.022;2023-02-17T15:58:53;3.57;;;1.00;;